createdAt,value
2023-02-22T00:03:00.788Z,7.45
2023-02-22T00:06:06.305Z,7.46
2023-02-22T00:09:10.405Z,7.48
2023-02-22T00:12:14.224Z,7.49
2023-02-22T00:15:22.330Z,7.52
2023-02-22T00:18:28.877Z,7.53
2023-02-22T00:21:32.097Z,7.53
2023-02-22T00:24:36.196Z,7.52
2023-02-22T00:27:39.468Z,7.51
2023-02-22T00:30:45.673Z,7.49
2023-02-22T00:33:49.382Z,7.47
2023-02-22T00:36:53.656Z,7.47
2023-02-22T00:39:56.985Z,7.46
2023-02-22T00:43:05.122Z,7.44
2023-02-22T00:46:08.301Z,7.42
2023-02-22T00:49:11.602Z,7.36
2023-02-22T00:52:14.826Z,7.30
2023-02-22T00:55:21.657Z,7.23
2023-02-22T00:58:24.993Z,7.19
2023-02-22T01:01:28.312Z,7.16
2023-02-22T01:04:31.566Z,7.15
2023-02-22T01:07:35.036Z,7.12
2023-02-22T01:10:39.432Z,7.10
2023-02-22T01:13:45.303Z,7.06
2023-02-22T01:16:48.538Z,7.03
2023-02-22T01:19:53.913Z,6.99
2023-02-22T01:23:00.575Z,6.96
2023-02-22T01:26:06.120Z,6.93
2023-02-22T01:29:15.260Z,6.90
2023-02-22T01:32:18.553Z,6.86
2023-02-22T01:35:26.088Z,6.83
2023-02-22T01:38:29.300Z,6.80
2023-02-22T01:41:32.854Z,6.78
2023-02-22T01:44:38.117Z,6.75
2023-02-22T01:47:42.116Z,6.73
2023-02-22T01:51:11.906Z,6.71
2023-02-22T01:54:23.802Z,6.70
2023-02-22T01:57:36.788Z,6.70
2023-02-22T02:00:40.434Z,6.69
2023-02-22T02:03:45.274Z,6.68
2023-02-22T02:07:00.408Z,6.66
2023-02-22T02:10:15.543Z,6.64
2023-02-22T02:13:18.974Z,6.63
2023-02-22T02:16:24.718Z,6.63
2023-02-22T02:19:49.650Z,6.60
2023-02-22T02:23:07.631Z,6.55
2023-02-22T02:26:41.941Z,6.50
2023-02-22T02:30:03.718Z,6.44
2023-02-22T02:33:39.107Z,6.40
2023-02-22T02:37:08.058Z,6.36
2023-02-22T02:40:37.384Z,6.35
2023-02-22T02:44:11.528Z,6.35
2023-02-22T02:47:24.067Z,6.34
2023-02-22T02:50:36.966Z,6.31
2023-02-22T02:53:44.927Z,6.30
2023-02-22T02:56:48.333Z,6.27
2023-02-22T02:59:51.693Z,6.26
2023-02-22T03:03:34.083Z,6.25
2023-02-22T03:07:10.888Z,6.22
2023-02-22T03:10:51.963Z,6.20
2023-02-22T03:14:07.146Z,6.20
2023-02-22T03:17:47.529Z,6.19
2023-02-22T03:20:59.993Z,6.18
2023-02-22T03:24:14.583Z,6.17
2023-02-22T03:27:34.021Z,6.18
2023-02-22T03:30:42.711Z,6.16
2023-02-22T03:33:52.259Z,6.14
2023-02-22T03:37:18.518Z,6.12
2023-02-22T03:40:27.833Z,6.10
2023-02-22T03:43:43.071Z,6.08
2023-02-22T03:46:53.514Z,6.07
2023-02-22T03:50:07.075Z,6.06
2023-02-22T03:53:11.461Z,6.06
2023-02-22T03:56:28.891Z,6.06
2023-02-22T03:59:32.263Z,6.04
2023-02-22T04:02:36.398Z,6.03
2023-02-22T04:05:40.415Z,6.02
2023-02-22T04:08:44.241Z,6.01
2023-02-22T04:11:47.942Z,6.00
2023-02-22T04:14:51.423Z,5.97
2023-02-22T04:17:55.072Z,5.97
2023-02-22T04:20:59.097Z,5.96
2023-02-22T04:24:10.260Z,5.93
2023-02-22T04:27:13.618Z,5.92
2023-02-22T04:30:19.908Z,5.92
2023-02-22T04:33:24.312Z,5.90
2023-02-22T04:36:27.822Z,5.88
2023-02-22T04:39:31.141Z,5.86
2023-02-22T04:42:38.624Z,5.82
2023-02-22T04:45:42.407Z,5.79
2023-02-22T04:48:45.706Z,5.77
2023-02-22T04:51:50.495Z,5.78
2023-02-22T04:54:58.222Z,5.76
2023-02-22T04:58:01.875Z,5.73
2023-02-22T05:01:05.297Z,5.71
2023-02-22T05:04:08.637Z,5.67
2023-02-22T05:07:12.330Z,5.66
2023-02-22T05:10:16.117Z,5.64
2023-02-22T05:13:19.271Z,5.64
2023-02-22T05:16:22.708Z,5.62
2023-02-22T05:19:26.243Z,5.58
2023-02-22T05:22:29.652Z,5.57
2023-02-22T05:25:33.700Z,5.57
2023-02-22T05:28:36.966Z,5.56
2023-02-22T05:31:41.983Z,5.58
2023-02-22T05:34:45.751Z,5.58
2023-02-22T05:37:50.834Z,5.60
2023-02-22T05:40:54.294Z,5.60
2023-02-22T05:43:57.489Z,5.61
2023-02-22T05:47:00.710Z,5.60
2023-02-22T05:50:04.031Z,5.62
2023-02-22T05:53:07.279Z,5.64
2023-02-22T05:56:10.480Z,5.67
2023-02-22T05:59:13.750Z,5.69
2023-02-22T06:02:17.075Z,5.69
2023-02-22T06:05:20.460Z,5.72
2023-02-22T06:08:23.717Z,5.74
2023-02-22T06:11:26.921Z,5.76
2023-02-22T06:14:30.121Z,5.78
2023-02-22T06:17:33.421Z,5.81
2023-02-22T06:20:36.617Z,5.83
2023-02-22T06:23:39.879Z,5.87
2023-02-22T06:26:43.124Z,5.89
2023-02-22T06:29:47.374Z,5.92
2023-02-22T06:32:50.663Z,5.96
2023-02-22T06:35:53.946Z,6.00
2023-02-22T06:38:57.579Z,6.03
2023-02-22T06:42:00.818Z,6.06
2023-02-22T06:45:04.501Z,6.10
2023-02-22T06:48:07.701Z,6.10
2023-02-22T06:51:11.107Z,6.14
2023-02-22T06:54:14.559Z,6.18
2023-02-22T06:57:18.612Z,6.20
2023-02-22T07:00:24.994Z,6.24
2023-02-22T07:03:28.272Z,6.27
2023-02-22T07:06:31.581Z,6.31
2023-02-22T07:09:34.833Z,6.35
2023-02-22T07:12:38.055Z,6.38
2023-02-22T07:15:41.996Z,6.41
2023-02-22T07:18:45.198Z,6.44
2023-02-22T07:21:48.338Z,6.48
2023-02-22T07:24:51.535Z,6.51
2023-02-22T07:27:54.788Z,6.55
2023-02-22T07:30:58.858Z,6.60
2023-02-22T07:34:02.260Z,6.64
2023-02-22T07:37:05.515Z,6.69
2023-02-22T07:40:09.160Z,6.75
2023-02-22T07:43:21.300Z,6.80
2023-02-22T07:46:24.484Z,6.85
2023-02-22T07:49:27.703Z,6.90
2023-02-22T07:52:30.855Z,6.95
2023-02-22T07:55:34.864Z,6.98
2023-02-22T07:58:38.060Z,7.03
2023-02-22T08:01:41.462Z,7.07
2023-02-22T08:04:44.720Z,7.12
2023-02-22T08:07:47.883Z,7.15
2023-02-22T08:10:52.329Z,7.20
2023-02-22T08:13:55.562Z,7.24
2023-02-22T08:16:58.790Z,7.27
2023-02-22T08:20:02.202Z,7.30
2023-02-22T08:23:06.744Z,7.35
2023-02-22T08:26:15.754Z,7.40
2023-02-22T08:29:19.013Z,7.45
2023-02-22T08:32:23.228Z,7.48
2023-02-22T08:35:27.689Z,7.52
2023-02-22T08:38:34.015Z,7.56
2023-02-22T08:41:37.558Z,7.60
2023-02-22T08:44:40.792Z,7.63
2023-02-22T08:47:44.351Z,7.66
2023-02-22T08:50:47.621Z,7.70
2023-02-22T08:53:51.086Z,7.72
2023-02-22T08:56:55.143Z,7.75
2023-02-22T08:59:58.471Z,7.78
2023-02-22T09:03:03.269Z,7.79
2023-02-22T09:06:08.138Z,7.81
2023-02-22T09:09:11.582Z,7.83
2023-02-22T09:12:14.866Z,7.84
2023-02-22T09:15:18.813Z,7.86
2023-02-22T09:18:22.466Z,7.87
2023-02-22T09:21:25.810Z,7.88
2023-02-22T09:24:29.444Z,7.91
2023-02-22T09:27:33.082Z,7.94
2023-02-22T09:30:37.550Z,7.97
2023-02-22T09:33:41.966Z,7.99
2023-02-22T09:36:48.669Z,8.00
2023-02-22T09:39:51.977Z,8.01
2023-02-22T09:43:14.139Z,8.01
2023-02-22T09:46:30.866Z,8.01
2023-02-22T09:49:38.213Z,8.00
2023-02-22T09:53:06.257Z,8.00
2023-02-22T09:56:17.538Z,7.99
2023-02-22T09:59:29.518Z,7.98
2023-02-22T10:02:39.323Z,8.01
2023-02-22T10:05:49.016Z,8.04
2023-02-22T10:08:56.583Z,8.06
2023-02-22T10:12:12.853Z,8.07
2023-02-22T10:15:37.261Z,8.08
2023-02-22T10:19:08.102Z,8.08
2023-02-22T10:22:45.651Z,8.08
2023-02-22T10:25:57.518Z,8.05
2023-02-22T10:29:11.211Z,8.07
2023-02-22T10:32:25.580Z,8.10
2023-02-22T10:35:35.266Z,8.13
2023-02-22T10:38:39.991Z,8.17
2023-02-22T10:41:49.638Z,8.20
2023-02-22T10:44:53.152Z,8.23
2023-02-22T10:47:59.235Z,8.24
2023-02-22T10:51:05.650Z,8.23
2023-02-22T10:54:27.158Z,8.21
2023-02-22T10:57:42.382Z,8.19
2023-02-22T11:00:46.706Z,8.18
2023-02-22T11:04:02.001Z,8.17
2023-02-22T11:07:18.351Z,8.16
2023-02-22T11:10:32.582Z,8.16
2023-02-22T11:13:40.092Z,8.19
2023-02-22T11:16:53.062Z,8.19
2023-02-22T11:19:57.549Z,8.20
2023-02-22T11:23:03.610Z,8.22
2023-02-22T11:26:10.668Z,8.24
2023-02-22T11:29:22.222Z,8.28
2023-02-22T11:32:26.626Z,8.32
2023-02-22T11:35:32.022Z,8.37
2023-02-22T11:38:38.168Z,8.43
2023-02-22T11:41:42.327Z,8.47
2023-02-22T11:44:45.756Z,8.50
2023-02-22T11:47:53.217Z,8.54
2023-02-22T11:51:14.495Z,8.57
2023-02-22T11:54:31.431Z,8.63
2023-02-22T11:57:56.122Z,8.71
2023-02-22T12:01:08.885Z,8.76
2023-02-22T12:04:24.360Z,8.81
2023-02-22T12:07:50.630Z,8.84
2023-02-22T12:11:19.818Z,8.88
2023-02-22T12:14:37.145Z,8.89
2023-02-22T12:18:01.112Z,8.89
2023-02-22T12:21:11.822Z,8.88
2023-02-22T12:24:30.819Z,8.89
2023-02-22T12:27:40.724Z,8.88
2023-02-22T12:30:50.628Z,8.86
2023-02-22T12:34:17.496Z,8.84
2023-02-22T12:37:35.246Z,8.82
2023-02-22T12:40:45.157Z,8.81
2023-02-22T12:44:06.343Z,8.80
2023-02-22T12:47:16.593Z,8.80
2023-02-22T12:50:24.951Z,8.78
2023-02-22T12:53:37.150Z,8.79
2023-02-22T12:56:57.870Z,8.80
2023-02-22T13:00:17.948Z,8.79
2023-02-22T13:03:42.445Z,8.78
2023-02-22T13:06:59.807Z,8.79
2023-02-22T13:10:40.654Z,8.78
2023-02-22T13:14:03.862Z,8.78
2023-02-22T13:17:14.792Z,8.76
2023-02-22T13:20:27.475Z,8.75
2023-02-22T13:23:45.379Z,8.75
2023-02-22T13:27:02.217Z,8.76
2023-02-22T13:30:14.641Z,8.75
2023-02-22T13:33:29.434Z,8.75
2023-02-22T13:37:14.144Z,8.75
2023-02-22T13:40:26.901Z,8.76
2023-02-22T13:43:48.985Z,8.77
2023-02-22T13:47:04.998Z,8.76
2023-02-22T13:50:39.521Z,8.77
2023-02-22T13:53:54.403Z,8.78
2023-02-22T13:56:58.202Z,8.77
2023-02-22T14:00:16.494Z,8.75
2023-02-22T14:03:24.148Z,8.72
2023-02-22T14:06:38.603Z,8.72
2023-02-22T14:09:52.089Z,8.70
2023-02-22T14:13:04.827Z,8.70
2023-02-22T14:16:08.176Z,8.70
2023-02-22T14:19:20.470Z,8.71
2023-02-22T14:22:30.256Z,8.71
2023-02-22T14:25:40.928Z,8.70
2023-02-22T14:28:53.238Z,8.68
2023-02-22T14:32:02.580Z,8.67
2023-02-22T14:35:26.401Z,8.67
2023-02-22T14:38:33.288Z,8.64
2023-02-22T14:41:40.731Z,8.62
2023-02-22T14:44:59.662Z,8.60
2023-02-22T14:48:33.673Z,8.58
2023-02-22T14:51:44.418Z,8.56
2023-02-22T14:55:25.322Z,8.54
2023-02-22T14:58:47.316Z,8.53
2023-02-22T15:02:11.517Z,8.51
2023-02-22T15:05:20.942Z,8.48
2023-02-22T15:08:28.408Z,8.48
2023-02-22T15:11:32.875Z,8.47
2023-02-22T15:14:38.967Z,8.46
2023-02-22T15:17:46.218Z,8.44
2023-02-22T15:20:56.301Z,8.42
2023-02-22T15:24:02.471Z,8.41
2023-02-22T15:27:12.124Z,8.37
2023-02-22T15:30:24.075Z,8.35
2023-02-22T15:33:31.642Z,8.34
2023-02-22T15:36:35.284Z,8.33
2023-02-22T15:39:43.941Z,8.33
2023-02-22T15:42:53.743Z,8.32
2023-02-22T15:45:58.309Z,8.30
2023-02-22T15:49:19.621Z,8.28
2023-02-22T15:52:26.506Z,8.26
2023-02-22T15:55:34.773Z,8.22
2023-02-22T15:58:39.238Z,8.19
2023-02-22T16:01:45.908Z,8.13
2023-02-22T16:04:59.335Z,8.07
2023-02-22T16:08:03.162Z,8.00
2023-02-22T16:11:13.738Z,7.92
2023-02-22T16:14:30.442Z,7.85
2023-02-22T16:17:41.120Z,7.73
2023-02-22T16:20:46.577Z,7.60
2023-02-22T16:23:53.467Z,7.46
2023-02-22T16:27:08.171Z,7.34
2023-02-22T16:30:32.614Z,7.22
2023-02-22T16:33:38.743Z,7.09
2023-02-22T16:36:45.576Z,6.98
2023-02-22T16:39:51.895Z,6.86
2023-02-22T16:56:56.903Z,6.41
2023-02-22T17:00:00.332Z,6.36
2023-02-22T17:03:05.646Z,6.31
2023-02-22T17:06:11.927Z,6.27
2023-02-22T17:09:16.588Z,6.20
2023-02-22T17:12:20.131Z,6.14
2023-02-22T17:15:26.685Z,6.10
2023-02-22T17:18:34.183Z,6.05
2023-02-22T17:21:40.275Z,6.00
2023-02-22T17:24:43.622Z,5.96
2023-02-22T17:27:48.787Z,5.91
2023-02-22T17:30:54.297Z,5.88
2023-02-22T17:34:03.686Z,5.88
2023-02-22T17:37:07.295Z,5.85
2023-02-22T17:40:10.632Z,5.83
2023-02-22T17:43:14.697Z,5.79
2023-02-22T17:46:19.861Z,5.73
2023-02-22T17:49:23.190Z,5.67
2023-02-22T17:52:30.202Z,5.61
2023-02-22T17:55:39.848Z,5.57
2023-02-22T17:58:43.169Z,5.52
2023-02-22T18:01:46.554Z,5.45
2023-02-22T18:04:49.998Z,5.41
2023-02-22T18:07:53.374Z,5.36
2023-02-22T18:10:56.759Z,5.32
2023-02-22T18:14:00.587Z,5.28
2023-02-22T18:17:04.908Z,5.23
2023-02-22T18:20:14.527Z,5.18
2023-02-22T18:23:20.806Z,5.13
2023-02-22T18:26:25.820Z,5.08
2023-02-22T18:29:29.403Z,5.05
2023-02-22T18:32:33.430Z,5.00
2023-02-22T18:35:40.637Z,4.94
2023-02-22T18:38:44.777Z,4.89
2023-02-22T18:41:48.884Z,4.84
2023-02-22T18:44:53.721Z,4.81
2023-02-22T18:47:56.923Z,4.78
2023-02-22T18:51:01.601Z,4.75
2023-02-22T18:54:04.876Z,4.72
2023-02-22T18:57:08.523Z,4.71
2023-02-22T19:00:17.466Z,4.68
2023-02-22T19:03:20.621Z,4.65
2023-02-22T19:06:24.096Z,4.64
2023-02-22T19:09:27.523Z,4.63
2023-02-22T19:12:31.512Z,4.62
2023-02-22T19:15:34.990Z,4.60
2023-02-22T19:18:38.361Z,4.58
2023-02-22T19:21:41.595Z,4.57
2023-02-22T19:24:45.730Z,4.57
2023-02-22T19:27:48.923Z,4.56
2023-02-22T19:30:52.173Z,4.56
2023-02-22T19:33:56.106Z,4.54
2023-02-22T19:37:06.159Z,4.51
2023-02-22T19:40:10.616Z,4.50
2023-02-22T19:43:14.374Z,4.51
2023-02-22T19:46:21.324Z,4.50
2023-02-22T19:52:29.751Z,4.52
2023-02-22T19:55:36.905Z,4.56
2023-02-22T19:58:41.416Z,4.59
2023-02-22T20:01:44.961Z,4.62
2023-02-22T20:04:50.164Z,4.62
2023-02-22T20:07:53.495Z,4.62
2023-02-22T20:11:00.023Z,4.61
2023-02-22T20:14:06.594Z,4.56
2023-02-22T20:17:10.354Z,4.52
2023-02-22T20:20:15.079Z,4.50
2023-02-22T20:23:18.508Z,4.47
2023-02-22T20:26:24.078Z,4.43
2023-02-22T20:29:30.369Z,4.39
2023-02-22T20:32:33.836Z,4.38
2023-02-22T20:35:37.663Z,4.35
2023-02-22T20:38:41.250Z,4.33
2023-02-22T20:41:46.378Z,4.29
2023-02-22T20:44:50.594Z,4.25
2023-02-22T20:47:54.590Z,4.20
2023-02-22T20:51:04.433Z,4.17
2023-02-22T20:54:11.596Z,4.13
2023-02-22T20:57:14.874Z,4.10
2023-02-22T21:00:18.546Z,4.08
2023-02-22T21:03:22.098Z,4.05
2023-02-22T21:06:25.424Z,4.05
2023-02-22T21:09:29.300Z,4.04
2023-02-22T21:12:35.913Z,4.07
2023-02-22T21:15:47.296Z,4.10
2023-02-22T21:18:52.695Z,4.12
2023-02-22T21:21:57.998Z,4.15
2023-02-22T21:25:01.459Z,4.17
2023-02-22T21:28:05.523Z,4.19
2023-02-22T21:31:11.274Z,4.16
2023-02-22T21:34:17.589Z,4.13
2023-02-22T21:37:21.913Z,4.08
2023-02-22T21:40:26.356Z,4.05
2023-02-22T21:43:29.551Z,4.04
2023-02-22T21:46:32.857Z,4.04
2023-02-22T21:49:36.017Z,4.07
2023-02-22T21:52:39.352Z,4.08
2023-02-22T21:55:44.248Z,4.10
2023-02-22T21:58:50.428Z,4.12
2023-02-22T22:01:56.260Z,4.12
2023-02-22T22:05:00.000Z,4.13
2023-02-22T22:08:07.528Z,4.12
2023-02-22T22:11:12.909Z,4.11
2023-02-22T22:14:17.875Z,4.09
2023-02-22T22:17:21.907Z,4.07
2023-02-22T22:20:25.424Z,4.08
2023-02-22T22:23:28.672Z,4.05
2023-02-22T22:26:33.944Z,4.04
2023-02-22T22:29:37.488Z,4.03
2023-02-22T22:32:40.743Z,4.02
2023-02-22T22:35:43.960Z,3.99
2023-02-22T22:38:48.073Z,3.98
2023-02-22T22:41:52.143Z,3.96
2023-02-22T22:44:55.374Z,3.93
2023-02-22T22:47:58.831Z,3.93
2023-02-22T22:51:06.631Z,3.93
2023-02-22T22:54:10.563Z,3.92
2023-02-22T22:57:14.530Z,3.90
2023-02-22T23:00:37.388Z,3.90
2023-02-22T23:03:43.520Z,3.88
2023-02-22T23:06:50.572Z,3.85
2023-02-22T23:09:54.017Z,3.83
2023-02-22T23:12:57.467Z,3.80
2023-02-22T23:16:01.970Z,3.80
2023-02-22T23:19:07.986Z,3.79
2023-02-22T23:22:14.396Z,3.79
2023-02-22T23:25:18.600Z,3.79
2023-02-22T23:28:23.760Z,3.78
2023-02-22T23:31:29.413Z,3.77
2023-02-22T23:34:35.908Z,3.77
2023-02-22T23:37:40.004Z,3.77
2023-02-22T23:40:44.796Z,3.76
2023-02-22T23:43:48.007Z,3.75
2023-02-22T23:46:55.560Z,3.75
2023-02-22T23:49:59.422Z,3.76
2023-02-22T23:53:03.732Z,3.74
2023-02-22T23:56:10.028Z,3.73
2023-02-22T23:59:14.432Z,3.72
